sensor_id;sensor_type;location;lat;lon;timestamp;P1;durP1;ratioP1;P2;durP2;ratioP2
41921;SDS011;27609;51.002;5.354;2023-07-16T00:00:10;6.20;;;2.88;;
41921;SDS011;27609;51.002;5.354;2023-07-16T00:02:37;5.35;;;3.40;;
41921;SDS011;27609;51.002;5.354;2023-07-16T00:05:03;7.75;;;4.07;;
41921;SDS011;27609;51.002;5.354;2023-07-16T00:07:29;6.82;;;3.17;;
41921;SDS011;27609;51.002;5.354;2023-07-16T00:09:55;6.55;;;2.60;;
41921;SDS011;27609;51.002;5.354;2023-07-16T00:12:20;5.63;;;2.72;;
41921;SDS011;27609;51.002;5.354;2023-07-16T00:14:47;7.05;;;2.83;;
41921;SDS011;27609;51.002;5.354;2023-07-16T00:17:13;5.53;;;3.40;;
41921;SDS011;27609;51.002;5.354;2023-07-16T00:19:38;5.65;;;2.97;;
41921;SDS011;27609;51.002;5.354;2023-07-16T00:22:04;5.53;;;2.67;;
41921;SDS011;27609;51.002;5.354;2023-07-16T00:24:30;9.75;;;3.30;;
41921;SDS011;27609;51.002;5.354;2023-07-16T00:26:55;7.50;;;2.97;;
41921;SDS011;27609;51.002;5.354;2023-07-16T00:29:22;7.18;;;2.88;;
41921;SDS011;27609;51.002;5.354;2023-07-16T00:31:47;5.38;;;2.40;;
41921;SDS011;27609;51.002;5.354;2023-07-16T00:34:13;5.25;;;2.90;;
41921;SDS011;27609;51.002;5.354;2023-07-16T00:36:39;6.93;;;2.75;;
41921;SDS011;27609;51.002;5.354;2023-07-16T00:39:04;6.38;;;2.72;;
41921;SDS011;27609;51.002;5.354;2023-07-16T00:41:30;4.50;;;1.95;;
41921;SDS011;27609;51.002;5.354;2023-07-16T00:43:55;6.85;;;2.30;;
41921;SDS011;27609;51.002;5.354;2023-07-16T00:46:21;4.80;;;2.65;;
41921;SDS011;27609;51.002;5.354;2023-07-16T00:48:47;6.38;;;2.30;;
41921;SDS011;27609;51.002;5.354;2023-07-16T00:51:13;5.78;;;2.13;;
41921;SDS011;27609;51.002;5.354;2023-07-16T00:53:41;8.43;;;2.50;;
41921;SDS011;27609;51.002;5.354;2023-07-16T00:56:08;8.88;;;2.60;;
41921;SDS011;27609;51.002;5.354;2023-07-16T00:58:35;6.60;;;2.42;;
41921;SDS011;27609;51.002;5.354;2023-07-16T01:01:01;6.22;;;2.88;;
41921;SDS011;27609;51.002;5.354;2023-07-16T01:03:26;5.07;;;2.80;;
41921;SDS011;27609;51.002;5.354;2023-07-16T01:11:17;8.85;;;2.55;;
41921;SDS011;27609;51.002;5.354;2023-07-16T01:13:44;10.52;;;3.05;;
41921;SDS011;27609;51.002;5.354;2023-07-16T01:16:19;6.05;;;2.63;;
41921;SDS011;27609;51.002;5.354;2023-07-16T01:18:50;6.13;;;2.97;;
41921;SDS011;27609;51.002;5.354;2023-07-16T01:21:17;4.65;;;2.50;;
41921;SDS011;27609;51.002;5.354;2023-07-16T01:34:45;7.03;;;2.60;;
41921;SDS011;27609;51.002;5.354;2023-07-16T01:37:11;9.20;;;2.78;;
41921;SDS011;27609;51.002;5.354;2023-07-16T01:39:37;6.78;;;3.25;;
41921;SDS011;27609;51.002;5.354;2023-07-16T01:42:04;9.20;;;3.10;;
41921;SDS011;27609;51.002;5.354;2023-07-16T01:44:30;6.85;;;2.60;;
41921;SDS011;27609;51.002;5.354;2023-07-16T01:49:56;6.90;;;2.58;;
41921;SDS011;27609;51.002;5.354;2023-07-16T01:52:22;7.45;;;2.90;;
41921;SDS011;27609;51.002;5.354;2023-07-16T01:54:48;8.68;;;3.38;;
41921;SDS011;27609;51.002;5.354;2023-07-16T01:57:13;9.70;;;3.65;;
41921;SDS011;27609;51.002;5.354;2023-07-16T01:59:39;6.68;;;2.92;;
41921;SDS011;27609;51.002;5.354;2023-07-16T02:02:05;5.95;;;3.03;;
41921;SDS011;27609;51.002;5.354;2023-07-16T02:04:30;5.25;;;3.00;;
41921;SDS011;27609;51.002;5.354;2023-07-16T02:06:56;9.70;;;3.30;;
41921;SDS011;27609;51.002;5.354;2023-07-16T02:09:22;8.63;;;2.80;;
41921;SDS011;27609;51.002;5.354;2023-07-16T02:11:48;8.80;;;3.25;;
41921;SDS011;27609;51.002;5.354;2023-07-16T02:14:13;8.07;;;3.05;;
41921;SDS011;27609;51.002;5.354;2023-07-16T02:16:41;7.20;;;3.13;;
41921;SDS011;27609;51.002;5.354;2023-07-16T02:19:06;10.18;;;3.22;;
41921;SDS011;27609;51.002;5.354;2023-07-16T02:21:32;6.85;;;3.28;;
41921;SDS011;27609;51.002;5.354;2023-07-16T02:23:58;8.32;;;2.92;;
41921;SDS011;27609;51.002;5.354;2023-07-16T02:26:23;7.97;;;3.28;;
41921;SDS011;27609;51.002;5.354;2023-07-16T02:28:50;7.57;;;3.33;;
41921;SDS011;27609;51.002;5.354;2023-07-16T02:31:16;13.05;;;3.47;;
41921;SDS011;27609;51.002;5.354;2023-07-16T02:33:41;7.78;;;2.65;;
41921;SDS011;27609;51.002;5.354;2023-07-16T02:36:07;7.82;;;2.50;;
41921;SDS011;27609;51.002;5.354;2023-07-16T02:38:33;5.70;;;2.80;;
41921;SDS011;27609;51.002;5.354;2023-07-16T02:40:59;5.38;;;2.83;;
41921;SDS011;27609;51.002;5.354;2023-07-16T02:43:24;7.53;;;3.20;;
41921;SDS011;27609;51.002;5.354;2023-07-16T02:45:50;7.63;;;3.03;;
41921;SDS011;27609;51.002;5.354;2023-07-16T02:48:16;12.20;;;3.50;;
41921;SDS011;27609;51.002;5.354;2023-07-16T02:50:41;10.90;;;3.55;;
41921;SDS011;27609;51.002;5.354;2023-07-16T02:53:07;6.60;;;2.88;;
41921;SDS011;27609;51.002;5.354;2023-07-16T02:55:34;10.95;;;4.38;;
41921;SDS011;27609;51.002;5.354;2023-07-16T02:58:00;10.43;;;4.00;;
41921;SDS011;27609;51.002;5.354;2023-07-16T03:00:29;6.78;;;3.20;;
41921;SDS011;27609;51.002;5.354;2023-07-16T03:02:55;13.02;;;4.07;;
41921;SDS011;27609;51.002;5.354;2023-07-16T03:05:21;10.90;;;3.47;;
41921;SDS011;27609;51.002;5.354;2023-07-16T03:07:47;7.53;;;3.60;;
41921;SDS011;27609;51.002;5.354;2023-07-16T03:10:12;9.32;;;3.90;;
41921;SDS011;27609;51.002;5.354;2023-07-16T03:12:38;10.48;;;3.40;;
41921;SDS011;27609;51.002;5.354;2023-07-16T03:15:03;10.57;;;4.20;;
41921;SDS011;27609;51.002;5.354;2023-07-16T03:17:29;12.82;;;3.90;;
41921;SDS011;27609;51.002;5.354;2023-07-16T03:19:55;8.05;;;3.90;;
41921;SDS011;27609;51.002;5.354;2023-07-16T03:22:21;12.27;;;3.83;;
41921;SDS011;27609;51.002;5.354;2023-07-16T03:24:46;9.48;;;3.92;;
41921;SDS011;27609;51.002;5.354;2023-07-16T03:27:12;16.85;;;4.18;;
41921;SDS011;27609;51.002;5.354;2023-07-16T03:29:38;11.65;;;3.85;;
41921;SDS011;27609;51.002;5.354;2023-07-16T03:32:04;8.73;;;3.30;;
41921;SDS011;27609;51.002;5.354;2023-07-16T03:34:29;11.40;;;3.60;;
41921;SDS011;27609;51.002;5.354;2023-07-16T03:36:55;17.55;;;3.97;;
41921;SDS011;27609;51.002;5.354;2023-07-16T03:39:21;9.65;;;3.42;;
41921;SDS011;27609;51.002;5.354;2023-07-16T03:41:46;8.15;;;3.30;;
41921;SDS011;27609;51.002;5.354;2023-07-16T03:44:12;9.32;;;4.47;;
41921;SDS011;27609;51.002;5.354;2023-07-16T03:46:37;12.32;;;4.05;;
41921;SDS011;27609;51.002;5.354;2023-07-16T03:49:06;9.20;;;3.90;;
41921;SDS011;27609;51.002;5.354;2023-07-16T03:51:32;8.38;;;3.83;;
41921;SDS011;27609;51.002;5.354;2023-07-16T03:53:58;15.18;;;4.13;;
41921;SDS011;27609;51.002;5.354;2023-07-16T03:56:23;13.80;;;4.28;;
41921;SDS011;27609;51.002;5.354;2023-07-16T03:58:49;6.78;;;3.55;;
41921;SDS011;27609;51.002;5.354;2023-07-16T04:01:15;13.45;;;4.57;;
41921;SDS011;27609;51.002;5.354;2023-07-16T04:03:40;8.23;;;3.80;;
41921;SDS011;27609;51.002;5.354;2023-07-16T04:06:07;9.73;;;3.92;;
41921;SDS011;27609;51.002;5.354;2023-07-16T04:08:34;12.95;;;3.95;;
41921;SDS011;27609;51.002;5.354;2023-07-16T04:11:00;12.02;;;3.95;;
41921;SDS011;27609;51.002;5.354;2023-07-16T04:13:26;13.32;;;3.95;;
41921;SDS011;27609;51.002;5.354;2023-07-16T04:15:52;10.88;;;3.88;;
41921;SDS011;27609;51.002;5.354;2023-07-16T04:18:19;11.98;;;4.53;;
41921;SDS011;27609;51.002;5.354;2023-07-16T04:20:46;11.38;;;4.13;;
41921;SDS011;27609;51.002;5.354;2023-07-16T04:23:12;11.30;;;3.80;;
41921;SDS011;27609;51.002;5.354;2023-07-16T04:25:37;7.35;;;3.10;;
41921;SDS011;27609;51.002;5.354;2023-07-16T04:28:03;10.45;;;3.60;;
41921;SDS011;27609;51.002;5.354;2023-07-16T04:30:29;16.98;;;4.10;;
41921;SDS011;27609;51.002;5.354;2023-07-16T04:32:55;9.30;;;4.32;;
41921;SDS011;27609;51.002;5.354;2023-07-16T04:35:20;13.43;;;4.25;;
41921;SDS011;27609;51.002;5.354;2023-07-16T04:37:46;9.45;;;4.50;;
41921;SDS011;27609;51.002;5.354;2023-07-16T04:40:12;14.27;;;4.35;;
41921;SDS011;27609;51.002;5.354;2023-07-16T04:42:37;12.57;;;3.95;;
41921;SDS011;27609;51.002;5.354;2023-07-16T04:45:04;17.08;;;4.45;;
41921;SDS011;27609;51.002;5.354;2023-07-16T04:47:30;12.43;;;4.30;;
41921;SDS011;27609;51.002;5.354;2023-07-16T04:49:57;11.68;;;4.20;;
41921;SDS011;27609;51.002;5.354;2023-07-16T04:52:23;11.65;;;4.70;;
41921;SDS011;27609;51.002;5.354;2023-07-16T04:54:49;11.50;;;4.55;;
41921;SDS011;27609;51.002;5.354;2023-07-16T04:57:15;20.27;;;4.93;;
41921;SDS011;27609;51.002;5.354;2023-07-16T04:59:41;13.95;;;4.63;;
41921;SDS011;27609;51.002;5.354;2023-07-16T05:02:06;10.85;;;5.07;;
41921;SDS011;27609;51.002;5.354;2023-07-16T05:04:35;12.05;;;4.35;;
41921;SDS011;27609;51.002;5.354;2023-07-16T05:07:01;15.07;;;4.75;;
41921;SDS011;27609;51.002;5.354;2023-07-16T05:09:28;15.95;;;4.85;;
41921;SDS011;27609;51.002;5.354;2023-07-16T05:11:53;12.10;;;4.15;;
41921;SDS011;27609;51.002;5.354;2023-07-16T05:14:19;10.80;;;4.47;;
41921;SDS011;27609;51.002;5.354;2023-07-16T05:16:45;13.48;;;4.85;;
41921;SDS011;27609;51.002;5.354;2023-07-16T05:19:11;12.30;;;5.20;;
41921;SDS011;27609;51.002;5.354;2023-07-16T05:21:36;13.10;;;5.25;;
41921;SDS011;27609;51.002;5.354;2023-07-16T05:24:02;14.20;;;5.43;;
41921;SDS011;27609;51.002;5.354;2023-07-16T05:26:29;7.88;;;4.15;;
41921;SDS011;27609;51.002;5.354;2023-07-16T05:28:55;11.18;;;4.57;;
41921;SDS011;27609;51.002;5.354;2023-07-16T05:31:21;17.15;;;5.18;;
41921;SDS011;27609;51.002;5.354;2023-07-16T05:33:46;12.75;;;4.85;;
41921;SDS011;27609;51.002;5.354;2023-07-16T05:36:12;10.23;;;4.53;;
41921;SDS011;27609;51.002;5.354;2023-07-16T05:38:38;16.77;;;5.10;;
41921;SDS011;27609;51.002;5.354;2023-07-16T05:41:04;11.35;;;5.30;;
41921;SDS011;27609;51.002;5.354;2023-07-16T05:43:30;10.10;;;4.90;;
41921;SDS011;27609;51.002;5.354;2023-07-16T05:45:56;14.65;;;5.55;;
41921;SDS011;27609;51.002;5.354;2023-07-16T05:48:23;13.35;;;4.82;;
41921;SDS011;27609;51.002;5.354;2023-07-16T05:50:49;14.35;;;5.28;;
41921;SDS011;27609;51.002;5.354;2023-07-16T05:53:15;12.75;;;4.70;;
41921;SDS011;27609;51.002;5.354;2023-07-16T05:55:41;13.68;;;5.32;;
41921;SDS011;27609;51.002;5.354;2023-07-16T05:58:06;15.70;;;5.55;;
41921;SDS011;27609;51.002;5.354;2023-07-16T06:00:32;15.88;;;5.57;;
41921;SDS011;27609;51.002;5.354;2023-07-16T06:02:58;11.48;;;5.88;;
41921;SDS011;27609;51.002;5.354;2023-07-16T06:05:24;16.80;;;6.20;;
41921;SDS011;27609;51.002;5.354;2023-07-16T06:07:51;15.55;;;5.68;;
41921;SDS011;27609;51.002;5.354;2023-07-16T06:10:17;13.57;;;5.22;;
41921;SDS011;27609;51.002;5.354;2023-07-16T06:12:42;18.33;;;5.78;;
41921;SDS011;27609;51.002;5.354;2023-07-16T06:15:08;17.73;;;6.75;;
41921;SDS011;27609;51.002;5.354;2023-07-16T06:17:34;12.13;;;5.55;;
41921;SDS011;27609;51.002;5.354;2023-07-16T06:20:01;11.68;;;5.30;;
41921;SDS011;27609;51.002;5.354;2023-07-16T06:22:28;10.93;;;4.80;;
41921;SDS011;27609;51.002;5.354;2023-07-16T06:24:53;9.90;;;5.07;;
41921;SDS011;27609;51.002;5.354;2023-07-16T06:27:19;8.88;;;5.13;;
41921;SDS011;27609;51.002;5.354;2023-07-16T06:29:45;10.73;;;5.85;;
41921;SDS011;27609;51.002;5.354;2023-07-16T06:32:11;15.00;;;5.97;;
41921;SDS011;27609;51.002;5.354;2023-07-16T06:34:37;10.95;;;5.40;;
41921;SDS011;27609;51.002;5.354;2023-07-16T06:37:02;11.80;;;5.68;;
41921;SDS011;27609;51.002;5.354;2023-07-16T06:39:28;7.03;;;5.03;;
41921;SDS011;27609;51.002;5.354;2023-07-16T06:41:55;10.88;;;5.93;;
41921;SDS011;27609;51.002;5.354;2023-07-16T06:44:21;11.52;;;5.38;;
41921;SDS011;27609;51.002;5.354;2023-07-16T06:46:48;11.63;;;4.75;;
41921;SDS011;27609;51.002;5.354;2023-07-16T06:49:14;13.60;;;5.82;;
41921;SDS011;27609;51.002;5.354;2023-07-16T06:51:40;11.07;;;6.40;;
41921;SDS011;27609;51.002;5.354;2023-07-16T06:54:06;12.27;;;5.25;;
41921;SDS011;27609;51.002;5.354;2023-07-16T06:56:31;12.13;;;5.90;;
41921;SDS011;27609;51.002;5.354;2023-07-16T06:58:57;9.20;;;5.32;;
41921;SDS011;27609;51.002;5.354;2023-07-16T07:01:23;15.32;;;5.90;;
41921;SDS011;27609;51.002;5.354;2023-07-16T07:03:48;14.10;;;6.20;;
41921;SDS011;27609;51.002;5.354;2023-07-16T07:06:14;12.13;;;5.95;;
41921;SDS011;27609;51.002;5.354;2023-07-16T07:08:40;12.02;;;5.47;;
41921;SDS011;27609;51.002;5.354;2023-07-16T07:11:05;13.52;;;5.30;;
41921;SDS011;27609;51.002;5.354;2023-07-16T07:13:31;14.60;;;6.38;;
41921;SDS011;27609;51.002;5.354;2023-07-16T07:15:57;10.50;;;5.80;;
41921;SDS011;27609;51.002;5.354;2023-07-16T07:18:22;15.85;;;5.97;;
41921;SDS011;27609;51.002;5.354;2023-07-16T07:20:48;16.45;;;5.63;;
41921;SDS011;27609;51.002;5.354;2023-07-16T07:23:15;12.90;;;5.18;;
41921;SDS011;27609;51.002;5.354;2023-07-16T07:25:41;13.20;;;6.57;;
41921;SDS011;27609;51.002;5.354;2023-07-16T07:28:06;12.88;;;6.30;;
41921;SDS011;27609;51.002;5.354;2023-07-16T07:30:33;18.42;;;6.15;;
41921;SDS011;27609;51.002;5.354;2023-07-16T07:32:59;14.77;;;5.70;;
41921;SDS011;27609;51.002;5.354;2023-07-16T07:35:24;11.90;;;5.75;;
41921;SDS011;27609;51.002;5.354;2023-07-16T07:37:50;13.40;;;5.15;;
41921;SDS011;27609;51.002;5.354;2023-07-16T07:40:16;11.20;;;5.15;;
41921;SDS011;27609;51.002;5.354;2023-07-16T07:42:42;13.05;;;5.82;;
41921;SDS011;27609;51.002;5.354;2023-07-16T07:45:08;10.80;;;5.25;;
41921;SDS011;27609;51.002;5.354;2023-07-16T07:47:33;13.98;;;5.47;;
41921;SDS011;27609;51.002;5.354;2023-07-16T07:49:59;10.95;;;4.95;;
41921;SDS011;27609;51.002;5.354;2023-07-16T07:52:26;10.73;;;4.95;;
41921;SDS011;27609;51.002;5.354;2023-07-16T07:54:52;13.45;;;5.07;;
41921;SDS011;27609;51.002;5.354;2023-07-16T07:57:19;8.15;;;5.05;;
41921;SDS011;27609;51.002;5.354;2023-07-16T07:59:45;8.32;;;4.78;;
41921;SDS011;27609;51.002;5.354;2023-07-16T08:02:11;6.90;;;5.03;;
41921;SDS011;27609;51.002;5.354;2023-07-16T08:04:36;9.02;;;4.90;;
41921;SDS011;27609;51.002;5.354;2023-07-16T08:07:02;17.70;;;5.10;;
41921;SDS011;27609;51.002;5.354;2023-07-16T08:09:28;12.02;;;5.13;;
41921;SDS011;27609;51.002;5.354;2023-07-16T08:11:54;11.25;;;5.13;;
41921;SDS011;27609;51.002;5.354;2023-07-16T08:14:19;14.35;;;5.55;;
41921;SDS011;27609;51.002;5.354;2023-07-16T08:16:45;8.10;;;4.22;;
41921;SDS011;27609;51.002;5.354;2023-07-16T08:19:11;9.55;;;5.35;;
41921;SDS011;27609;51.002;5.354;2023-07-16T08:21:36;13.02;;;4.70;;
41921;SDS011;27609;51.002;5.354;2023-07-16T08:24:03;6.95;;;5.05;;
41921;SDS011;27609;51.002;5.354;2023-07-16T08:26:30;10.32;;;5.60;;
41921;SDS011;27609;51.002;5.354;2023-07-16T08:28:56;14.07;;;5.40;;
41921;SDS011;27609;51.002;5.354;2023-07-16T08:31:21;10.75;;;5.13;;
41921;SDS011;27609;51.002;5.354;2023-07-16T08:33:47;13.70;;;4.55;;
41921;SDS011;27609;51.002;5.354;2023-07-16T08:36:13;8.52;;;4.43;;
41921;SDS011;27609;51.002;5.354;2023-07-16T08:38:38;7.85;;;4.88;;
41921;SDS011;27609;51.002;5.354;2023-07-16T08:41:04;8.23;;;4.57;;
41921;SDS011;27609;51.002;5.354;2023-07-16T08:43:30;10.55;;;4.90;;
41921;SDS011;27609;51.002;5.354;2023-07-16T08:45:57;8.60;;;4.55;;
41921;SDS011;27609;51.002;5.354;2023-07-16T08:48:25;8.13;;;4.07;;
41921;SDS011;27609;51.002;5.354;2023-07-16T08:50:54;8.23;;;4.25;;
41921;SDS011;27609;51.002;5.354;2023-07-16T08:53:22;8.13;;;3.85;;
41921;SDS011;27609;51.002;5.354;2023-07-16T08:55:48;5.53;;;4.18;;
41921;SDS011;27609;51.002;5.354;2023-07-16T08:58:13;7.95;;;3.45;;
41921;SDS011;27609;51.002;5.354;2023-07-16T09:00:40;8.98;;;4.05;;
41921;SDS011;27609;51.002;5.354;2023-07-16T09:03:09;9.60;;;4.32;;
41921;SDS011;27609;51.002;5.354;2023-07-16T09:05:40;7.75;;;3.85;;
41921;SDS011;27609;51.002;5.354;2023-07-16T09:08:05;5.15;;;3.72;;
41921;SDS011;27609;51.002;5.354;2023-07-16T09:10:32;9.13;;;3.63;;
41921;SDS011;27609;51.002;5.354;2023-07-16T09:12:58;5.78;;;3.83;;
41921;SDS011;27609;51.002;5.354;2023-07-16T09:15:26;6.75;;;3.53;;
41921;SDS011;27609;51.002;5.354;2023-07-16T09:17:53;10.30;;;3.80;;
41921;SDS011;27609;51.002;5.354;2023-07-16T09:20:20;6.07;;;3.58;;
41921;SDS011;27609;51.002;5.354;2023-07-16T09:22:48;6.07;;;2.92;;
41921;SDS011;27609;51.002;5.354;2023-07-16T09:25:14;7.47;;;3.70;;
41921;SDS011;27609;51.002;5.354;2023-07-16T09:27:40;8.38;;;3.38;;
41921;SDS011;27609;51.002;5.354;2023-07-16T09:30:06;7.25;;;3.50;;
41921;SDS011;27609;51.002;5.354;2023-07-16T09:32:36;7.07;;;3.80;;
41921;SDS011;27609;51.002;5.354;2023-07-16T09:35:13;5.18;;;3.92;;
41921;SDS011;27609;51.002;5.354;2023-07-16T09:37:41;9.43;;;3.55;;
41921;SDS011;27609;51.002;5.354;2023-07-16T09:40:07;7.38;;;3.53;;
41921;SDS011;27609;51.002;5.354;2023-07-16T09:42:36;6.97;;;3.95;;
41921;SDS011;27609;51.002;5.354;2023-07-16T09:45:04;5.53;;;3.33;;
41921;SDS011;27609;51.002;5.354;2023-07-16T09:47:31;5.47;;;3.47;;
41921;SDS011;27609;51.002;5.354;2023-07-16T09:49:56;5.75;;;3.60;;
41921;SDS011;27609;51.002;5.354;2023-07-16T09:52:22;5.45;;;3.08;;
41921;SDS011;27609;51.002;5.354;2023-07-16T09:54:51;6.30;;;3.40;;
41921;SDS011;27609;51.002;5.354;2023-07-16T09:57:20;6.95;;;2.97;;
41921;SDS011;27609;51.002;5.354;2023-07-16T09:59:48;6.53;;;3.08;;
41921;SDS011;27609;51.002;5.354;2023-07-16T10:02:15;6.53;;;3.20;;
41921;SDS011;27609;51.002;5.354;2023-07-16T10:04:41;7.70;;;3.53;;
41921;SDS011;27609;51.002;5.354;2023-07-16T10:07:07;5.43;;;3.13;;
41921;SDS011;27609;51.002;5.354;2023-07-16T10:09:54;5.05;;;3.00;;
41921;SDS011;27609;51.002;5.354;2023-07-16T10:12:22;3.22;;;2.90;;
41921;SDS011;27609;51.002;5.354;2023-07-16T10:14:50;4.32;;;2.75;;
41921;SDS011;27609;51.002;5.354;2023-07-16T10:17:19;7.78;;;3.33;;
41921;SDS011;27609;51.002;5.354;2023-07-16T10:20:28;4.40;;;2.70;;
41921;SDS011;27609;51.002;5.354;2023-07-16T10:22:57;5.80;;;2.88;;
41921;SDS011;27609;51.002;5.354;2023-07-16T10:25:25;6.00;;;2.75;;
41921;SDS011;27609;51.002;5.354;2023-07-16T10:27:52;5.53;;;2.60;;
41921;SDS011;27609;51.002;5.354;2023-07-16T10:30:19;6.20;;;3.10;;
41921;SDS011;27609;51.002;5.354;2023-07-16T10:32:45;6.53;;;3.50;;
41921;SDS011;27609;51.002;5.354;2023-07-16T10:35:11;5.88;;;2.70;;
41921;SDS011;27609;51.002;5.354;2023-07-16T10:37:38;4.55;;;3.38;;
41921;SDS011;27609;51.002;5.354;2023-07-16T10:40:05;10.35;;;2.90;;
41921;SDS011;27609;51.002;5.354;2023-07-16T10:42:34;4.93;;;2.78;;
41921;SDS011;27609;51.002;5.354;2023-07-16T10:45:01;4.95;;;3.20;;
41921;SDS011;27609;51.002;5.354;2023-07-16T10:47:35;5.97;;;2.63;;
41921;SDS011;27609;51.002;5.354;2023-07-16T10:50:03;6.03;;;3.30;;
41921;SDS011;27609;51.002;5.354;2023-07-16T10:52:33;6.93;;;2.55;;
41921;SDS011;27609;51.002;5.354;2023-07-16T10:55:00;6.45;;;3.25;;
41921;SDS011;27609;51.002;5.354;2023-07-16T10:57:25;7.80;;;3.28;;
41921;SDS011;27609;51.002;5.354;2023-07-16T10:59:53;7.03;;;3.42;;
41921;SDS011;27609;51.002;5.354;2023-07-16T11:02:20;5.05;;;2.53;;
41921;SDS011;27609;51.002;5.354;2023-07-16T11:04:48;6.97;;;3.15;;
41921;SDS011;27609;51.002;5.354;2023-07-16T11:07:15;5.50;;;2.90;;
41921;SDS011;27609;51.002;5.354;2023-07-16T11:12:12;6.75;;;3.25;;
41921;SDS011;27609;51.002;5.354;2023-07-16T11:14:41;8.70;;;3.33;;
41921;SDS011;27609;51.002;5.354;2023-07-16T11:17:11;8.23;;;3.53;;
41921;SDS011;27609;51.002;5.354;2023-07-16T11:19:38;7.03;;;3.00;;
41921;SDS011;27609;51.002;5.354;2023-07-16T11:22:06;5.70;;;3.75;;
41921;SDS011;27609;51.002;5.354;2023-07-16T11:24:39;5.75;;;3.45;;
41921;SDS011;27609;51.002;5.354;2023-07-16T11:27:20;7.05;;;3.10;;
41921;SDS011;27609;51.002;5.354;2023-07-16T11:35:06;6.65;;;3.22;;
41921;SDS011;27609;51.002;5.354;2023-07-16T11:37:33;6.25;;;3.15;;
41921;SDS011;27609;51.002;5.354;2023-07-16T11:40:02;6.15;;;3.10;;
41921;SDS011;27609;51.002;5.354;2023-07-16T11:42:32;10.80;;;3.72;;
41921;SDS011;27609;51.002;5.354;2023-07-16T11:44:59;6.07;;;3.55;;
41921;SDS011;27609;51.002;5.354;2023-07-16T11:47:26;8.50;;;2.85;;
41921;SDS011;27609;51.002;5.354;2023-07-16T11:49:52;4.38;;;2.88;;
41921;SDS011;27609;51.002;5.354;2023-07-16T11:52:23;5.88;;;3.00;;
41921;SDS011;27609;51.002;5.354;2023-07-16T11:54:53;8.00;;;2.97;;
41921;SDS011;27609;51.002;5.354;2023-07-16T11:57:24;4.95;;;3.00;;
41921;SDS011;27609;51.002;5.354;2023-07-16T11:59:50;5.80;;;2.78;;
41921;SDS011;27609;51.002;5.354;2023-07-16T12:02:16;3.92;;;2.60;;
41921;SDS011;27609;51.002;5.354;2023-07-16T12:04:42;6.63;;;3.08;;
41921;SDS011;27609;51.002;5.354;2023-07-16T12:07:08;8.57;;;3.78;;
41921;SDS011;27609;51.002;5.354;2023-07-16T12:09:33;6.82;;;3.20;;
41921;SDS011;27609;51.002;5.354;2023-07-16T12:11:59;6.53;;;3.13;;
41921;SDS011;27609;51.002;5.354;2023-07-16T12:14:25;4.80;;;2.92;;
41921;SDS011;27609;51.002;5.354;2023-07-16T12:16:51;7.53;;;3.47;;
41921;SDS011;27609;51.002;5.354;2023-07-16T12:19:17;5.43;;;2.80;;
41921;SDS011;27609;51.002;5.354;2023-07-16T12:21:43;6.80;;;2.90;;
41921;SDS011;27609;51.002;5.354;2023-07-16T12:24:09;6.55;;;3.17;;
41921;SDS011;27609;51.002;5.354;2023-07-16T12:26:34;6.85;;;3.30;;
41921;SDS011;27609;51.002;5.354;2023-07-16T12:29:00;6.70;;;2.67;;
41921;SDS011;27609;51.002;5.354;2023-07-16T12:31:33;4.53;;;2.90;;
41921;SDS011;27609;51.002;5.354;2023-07-16T12:33:59;5.75;;;3.20;;
41921;SDS011;27609;51.002;5.354;2023-07-16T12:36:27;4.85;;;2.60;;
41921;SDS011;27609;51.002;5.354;2023-07-16T12:38:52;5.72;;;3.10;;
41921;SDS011;27609;51.002;5.354;2023-07-16T12:41:18;5.88;;;2.63;;
41921;SDS011;27609;51.002;5.354;2023-07-16T12:43:45;7.78;;;3.10;;
41921;SDS011;27609;51.002;5.354;2023-07-16T12:46:12;6.22;;;2.65;;
41921;SDS011;27609;51.002;5.354;2023-07-16T12:48:37;4.03;;;2.67;;
41921;SDS011;27609;51.002;5.354;2023-07-16T12:51:03;5.50;;;2.60;;
41921;SDS011;27609;51.002;5.354;2023-07-16T12:53:29;5.35;;;2.85;;
41921;SDS011;27609;51.002;5.354;2023-07-16T12:55:54;6.97;;;3.00;;
41921;SDS011;27609;51.002;5.354;2023-07-16T12:58:20;9.32;;;2.65;;
41921;SDS011;27609;51.002;5.354;2023-07-16T13:00:46;3.80;;;2.38;;
41921;SDS011;27609;51.002;5.354;2023-07-16T13:03:12;5.70;;;2.47;;
41921;SDS011;27609;51.002;5.354;2023-07-16T13:05:41;4.97;;;2.87;;
41921;SDS011;27609;51.002;5.354;2023-07-16T13:08:07;5.57;;;2.70;;
41921;SDS011;27609;51.002;5.354;2023-07-16T13:10:33;5.57;;;2.60;;
41921;SDS011;27609;51.002;5.354;2023-07-16T13:12:59;5.20;;;2.80;;
41921;SDS011;27609;51.002;5.354;2023-07-16T13:15:25;3.95;;;2.30;;
41921;SDS011;27609;51.002;5.354;2023-07-16T13:17:51;6.93;;;2.28;;
41921;SDS011;27609;51.002;5.354;2023-07-16T13:20:17;6.65;;;2.75;;
41921;SDS011;27609;51.002;5.354;2023-07-16T13:22:44;4.63;;;2.60;;
41921;SDS011;27609;51.002;5.354;2023-07-16T13:25:09;4.50;;;2.40;;
41921;SDS011;27609;51.002;5.354;2023-07-16T13:27:35;6.00;;;2.80;;
41921;SDS011;27609;51.002;5.354;2023-07-16T13:30:01;4.03;;;2.33;;
41921;SDS011;27609;51.002;5.354;2023-07-16T13:32:26;5.53;;;2.58;;
41921;SDS011;27609;51.002;5.354;2023-07-16T13:34:53;4.88;;;2.53;;
41921;SDS011;27609;51.002;5.354;2023-07-16T13:37:19;5.65;;;2.70;;
41921;SDS011;27609;51.002;5.354;2023-07-16T13:39:44;3.30;;;2.30;;
41921;SDS011;27609;51.002;5.354;2023-07-16T13:42:10;6.38;;;2.80;;
41921;SDS011;27609;51.002;5.354;2023-07-16T13:44:36;6.18;;;2.22;;
41921;SDS011;27609;51.002;5.354;2023-07-16T13:47:02;8.25;;;2.78;;
41921;SDS011;27609;51.002;5.354;2023-07-16T13:49:28;4.57;;;2.50;;
41921;SDS011;27609;51.002;5.354;2023-07-16T13:51:54;7.93;;;3.35;;
41921;SDS011;27609;51.002;5.354;2023-07-16T13:54:20;5.80;;;2.63;;
41921;SDS011;27609;51.002;5.354;2023-07-16T13:56:46;5.45;;;2.95;;
41921;SDS011;27609;51.002;5.354;2023-07-16T13:59:12;3.75;;;2.33;;
41921;SDS011;27609;51.002;5.354;2023-07-16T14:01:38;5.97;;;2.88;;
41921;SDS011;27609;51.002;5.354;2023-07-16T14:04:04;3.35;;;2.60;;
41921;SDS011;27609;51.002;5.354;2023-07-16T14:06:30;9.40;;;3.63;;
41921;SDS011;27609;51.002;5.354;2023-07-16T14:08:55;7.32;;;3.03;;
41921;SDS011;27609;51.002;5.354;2023-07-16T14:11:22;12.85;;;2.92;;
41921;SDS011;27609;51.002;5.354;2023-07-16T14:13:47;5.18;;;2.83;;
41921;SDS011;27609;51.002;5.354;2023-07-16T14:16:16;4.20;;;2.45;;
41921;SDS011;27609;51.002;5.354;2023-07-16T14:18:42;10.85;;;2.72;;
41921;SDS011;27609;51.002;5.354;2023-07-16T14:21:08;4.35;;;2.60;;
41921;SDS011;27609;51.002;5.354;2023-07-16T14:23:34;5.53;;;2.40;;
41921;SDS011;27609;51.002;5.354;2023-07-16T14:25:59;3.92;;;2.63;;
41921;SDS011;27609;51.002;5.354;2023-07-16T14:28:25;7.50;;;2.95;;
41921;SDS011;27609;51.002;5.354;2023-07-16T14:30:51;2.53;;;2.33;;
41921;SDS011;27609;51.002;5.354;2023-07-16T14:33:16;6.05;;;2.35;;
41921;SDS011;27609;51.002;5.354;2023-07-16T14:35:42;3.97;;;2.50;;
41921;SDS011;27609;51.002;5.354;2023-07-16T14:38:08;5.40;;;2.20;;
41921;SDS011;27609;51.002;5.354;2023-07-16T14:40:33;4.15;;;2.17;;
41921;SDS011;27609;51.002;5.354;2023-07-16T14:42:59;6.05;;;2.33;;
41921;SDS011;27609;51.002;5.354;2023-07-16T14:45:25;2.97;;;1.75;;
41921;SDS011;27609;51.002;5.354;2023-07-16T14:47:50;6.50;;;2.42;;
41921;SDS011;27609;51.002;5.354;2023-07-16T14:50:16;6.45;;;2.15;;
41921;SDS011;27609;51.002;5.354;2023-07-16T14:52:42;4.88;;;2.35;;
41921;SDS011;27609;51.002;5.354;2023-07-16T14:55:07;4.47;;;2.20;;
41921;SDS011;27609;51.002;5.354;2023-07-16T14:57:33;4.22;;;2.22;;
41921;SDS011;27609;51.002;5.354;2023-07-16T14:59:59;5.20;;;1.92;;
41921;SDS011;27609;51.002;5.354;2023-07-16T15:02:25;6.18;;;2.63;;
41921;SDS011;27609;51.002;5.354;2023-07-16T15:04:51;3.65;;;2.38;;